sensor_id;sensor_type;location;lat;lon;timestamp;P1;durP1;ratioP1;P2;durP2;ratioP2
35312;SDS011;21425;50.454;30.466;2023-10-13T00:01:33;21.40;;;9.70;;
35312;SDS011;21425;50.454;30.466;2023-10-13T00:03:59;19.80;;;11.35;;
35312;SDS011;21425;50.454;30.466;2023-10-13T00:06:30;19.88;;;10.65;;
35312;SDS011;21425;50.454;30.466;2023-10-13T00:08:56;18.88;;;9.63;;
35312;SDS011;21425;50.454;30.466;2023-10-13T00:11:22;17.75;;;10.57;;
35312;SDS011;21425;50.454;30.466;2023-10-13T00:13:51;21.50;;;11.93;;
35312;SDS011;21425;50.454;30.466;2023-10-13T00:16:19;19.98;;;11.15;;
35312;SDS011;21425;50.454;30.466;2023-10-13T00:18:56;23.38;;;10.90;;
35312;SDS011;21425;50.454;30.466;2023-10-13T00:21:24;20.40;;;9.80;;
35312;SDS011;21425;50.454;30.466;2023-10-13T00:24:01;19.58;;;11.43;;
35312;SDS011;21425;50.454;30.466;2023-10-13T00:26:30;22.65;;;10.90;;
35312;SDS011;21425;50.454;30.466;2023-10-13T00:29:01;20.85;;;11.00;;
35312;SDS011;21425;50.454;30.466;2023-10-13T00:31:40;22.52;;;10.93;;
35312;SDS011;21425;50.454;30.466;2023-10-13T00:34:07;24.25;;;11.43;;
35312;SDS011;21425;50.454;30.466;2023-10-13T00:36:43;20.70;;;11.45;;
35312;SDS011;21425;50.454;30.466;2023-10-13T00:39:27;22.10;;;11.85;;
35312;SDS011;21425;50.454;30.466;2023-10-13T00:41:54;21.55;;;12.15;;
35312;SDS011;21425;50.454;30.466;2023-10-13T00:44:31;25.90;;;11.93;;
35312;SDS011;21425;50.454;30.466;2023-10-13T00:47:07;20.80;;;12.85;;
35312;SDS011;21425;50.454;30.466;2023-10-13T00:49:41;17.70;;;10.35;;
35312;SDS011;21425;50.454;30.466;2023-10-13T00:52:12;20.25;;;11.15;;
35312;SDS011;21425;50.454;30.466;2023-10-13T00:54:40;17.77;;;11.10;;
35312;SDS011;21425;50.454;30.466;2023-10-13T00:57:11;18.10;;;10.75;;
35312;SDS011;21425;50.454;30.466;2023-10-13T00:59:53;21.00;;;11.57;;
35312;SDS011;21425;50.454;30.466;2023-10-13T01:02:20;18.40;;;10.27;;
35312;SDS011;21425;50.454;30.466;2023-10-13T01:05:05;20.83;;;11.27;;
35312;SDS011;21425;50.454;30.466;2023-10-13T01:07:36;22.85;;;12.40;;
35312;SDS011;21425;50.454;30.466;2023-10-13T01:10:02;21.67;;;11.10;;
35312;SDS011;21425;50.454;30.466;2023-10-13T01:12:32;21.52;;;12.20;;
35312;SDS011;21425;50.454;30.466;2023-10-13T01:14:58;20.80;;;11.65;;
35312;SDS011;21425;50.454;30.466;2023-10-13T01:17:24;23.80;;;12.60;;
35312;SDS011;21425;50.454;30.466;2023-10-13T01:19:56;24.13;;;12.70;;
35312;SDS011;21425;50.454;30.466;2023-10-13T01:22:23;24.48;;;13.52;;
35312;SDS011;21425;50.454;30.466;2023-10-13T01:24:49;22.52;;;11.98;;
35312;SDS011;21425;50.454;30.466;2023-10-13T01:27:16;27.50;;;13.52;;
35312;SDS011;21425;50.454;30.466;2023-10-13T01:29:46;26.02;;;12.68;;
35312;SDS011;21425;50.454;30.466;2023-10-13T01:32:29;19.77;;;11.05;;
35312;SDS011;21425;50.454;30.466;2023-10-13T01:34:55;25.80;;;13.45;;
35312;SDS011;21425;50.454;30.466;2023-10-13T01:37:22;26.35;;;12.80;;
35312;SDS011;21425;50.454;30.466;2023-10-13T01:39:48;21.58;;;12.07;;
35312;SDS011;21425;50.454;30.466;2023-10-13T01:42:15;24.83;;;12.50;;
35312;SDS011;21425;50.454;30.466;2023-10-13T01:44:46;22.63;;;11.32;;
35312;SDS011;21425;50.454;30.466;2023-10-13T01:47:12;20.75;;;10.90;;
35312;SDS011;21425;50.454;30.466;2023-10-13T01:49:40;21.70;;;11.50;;
35312;SDS011;21425;50.454;30.466;2023-10-13T01:52:12;25.05;;;12.40;;
35312;SDS011;21425;50.454;30.466;2023-10-13T01:54:42;24.55;;;11.77;;
35312;SDS011;21425;50.454;30.466;2023-10-13T01:57:10;21.90;;;11.55;;
35312;SDS011;21425;50.454;30.466;2023-10-13T01:59:43;22.45;;;12.60;;
35312;SDS011;21425;50.454;30.466;2023-10-13T02:02:10;22.80;;;12.27;;
35312;SDS011;21425;50.454;30.466;2023-10-13T02:04:42;19.92;;;11.50;;
35312;SDS011;21425;50.454;30.466;2023-10-13T02:07:16;23.08;;;13.02;;
35312;SDS011;21425;50.454;30.466;2023-10-13T02:09:42;20.35;;;11.90;;
35312;SDS011;21425;50.454;30.466;2023-10-13T02:12:09;21.90;;;13.50;;
35312;SDS011;21425;50.454;30.466;2023-10-13T02:14:36;20.33;;;11.95;;
35312;SDS011;21425;50.454;30.466;2023-10-13T02:17:03;27.80;;;12.25;;
35312;SDS011;21425;50.454;30.466;2023-10-13T02:19:37;22.50;;;11.57;;
35312;SDS011;21425;50.454;30.466;2023-10-13T02:22:10;21.73;;;12.20;;
35312;SDS011;21425;50.454;30.466;2023-10-13T02:24:36;20.20;;;11.60;;
35312;SDS011;21425;50.454;30.466;2023-10-13T02:27:06;23.13;;;11.20;;
35312;SDS011;21425;50.454;30.466;2023-10-13T02:29:39;18.92;;;12.13;;
35312;SDS011;21425;50.454;30.466;2023-10-13T02:32:05;19.33;;;10.88;;
35312;SDS011;21425;50.454;30.466;2023-10-13T02:34:38;25.20;;;11.98;;
35312;SDS011;21425;50.454;30.466;2023-10-13T02:37:09;22.33;;;11.40;;
35312;SDS011;21425;50.454;30.466;2023-10-13T02:39:35;19.42;;;12.23;;
35312;SDS011;21425;50.454;30.466;2023-10-13T02:42:01;22.20;;;11.27;;
35312;SDS011;21425;50.454;30.466;2023-10-13T02:44:32;22.20;;;12.05;;
35312;SDS011;21425;50.454;30.466;2023-10-13T02:46:58;21.95;;;12.90;;
35312;SDS011;21425;50.454;30.466;2023-10-13T02:49:27;19.98;;;12.65;;
35312;SDS011;21425;50.454;30.466;2023-10-13T02:51:59;19.23;;;11.48;;
35312;SDS011;21425;50.454;30.466;2023-10-13T02:54:30;21.08;;;12.23;;
35312;SDS011;21425;50.454;30.466;2023-10-13T02:56:59;19.58;;;11.50;;
35312;SDS011;21425;50.454;30.466;2023-10-13T02:59:29;20.98;;;12.35;;
35312;SDS011;21425;50.454;30.466;2023-10-13T03:02:05;21.38;;;11.68;;
35312;SDS011;21425;50.454;30.466;2023-10-13T03:04:50;15.15;;;10.63;;
35312;SDS011;21425;50.454;30.466;2023-10-13T03:07:17;18.73;;;11.00;;
35312;SDS011;21425;50.454;30.466;2023-10-13T03:09:51;16.67;;;10.90;;
35312;SDS011;21425;50.454;30.466;2023-10-13T03:12:17;18.25;;;10.35;;
35312;SDS011;21425;50.454;30.466;2023-10-13T03:14:43;21.60;;;12.02;;
35312;SDS011;21425;50.454;30.466;2023-10-13T03:17:21;16.40;;;9.70;;
35312;SDS011;21425;50.454;30.466;2023-10-13T03:19:58;24.52;;;10.93;;
35312;SDS011;21425;50.454;30.466;2023-10-13T03:22:24;21.35;;;10.73;;
35312;SDS011;21425;50.454;30.466;2023-10-13T03:24:57;19.25;;;10.68;;
35312;SDS011;21425;50.454;30.466;2023-10-13T03:27:38;20.73;;;9.60;;
35312;SDS011;21425;50.454;30.466;2023-10-13T03:30:26;15.95;;;10.23;;
35312;SDS011;21425;50.454;30.466;2023-10-13T03:33:07;22.77;;;10.65;;
35312;SDS011;21425;50.454;30.466;2023-10-13T03:35:50;16.38;;;10.27;;
35312;SDS011;21425;50.454;30.466;2023-10-13T03:40:52;18.80;;;10.30;;
35312;SDS011;21425;50.454;30.466;2023-10-13T03:43:37;15.82;;;9.90;;
35312;SDS011;21425;50.454;30.466;2023-10-13T03:46:17;17.73;;;11.20;;
35312;SDS011;21425;50.454;30.466;2023-10-13T03:48:46;18.00;;;10.63;;
35312;SDS011;21425;50.454;30.466;2023-10-13T03:51:19;16.83;;;10.77;;
35312;SDS011;21425;50.454;30.466;2023-10-13T03:53:45;21.92;;;11.27;;
35312;SDS011;21425;50.454;30.466;2023-10-13T03:56:21;21.48;;;11.15;;
35312;SDS011;21425;50.454;30.466;2023-10-13T03:58:52;19.73;;;10.07;;
35312;SDS011;21425;50.454;30.466;2023-10-13T04:01:50;19.42;;;11.55;;
35312;SDS011;21425;50.454;30.466;2023-10-13T04:04:17;21.80;;;10.45;;
35312;SDS011;21425;50.454;30.466;2023-10-13T04:07:02;19.88;;;10.85;;
35312;SDS011;21425;50.454;30.466;2023-10-13T04:09:37;18.00;;;11.07;;
35312;SDS011;21425;50.454;30.466;2023-10-13T04:12:23;17.85;;;10.07;;
35312;SDS011;21425;50.454;30.466;2023-10-13T04:15:08;16.63;;;10.75;;
35312;SDS011;21425;50.454;30.466;2023-10-13T04:17:34;20.10;;;10.77;;
35312;SDS011;21425;50.454;30.466;2023-10-13T04:20:05;16.92;;;9.95;;
35312;SDS011;21425;50.454;30.466;2023-10-13T04:22:32;21.98;;;10.70;;
35312;SDS011;21425;50.454;30.466;2023-10-13T04:25:24;18.40;;;11.02;;
35312;SDS011;21425;50.454;30.466;2023-10-13T04:28:09;20.90;;;12.07;;
35312;SDS011;21425;50.454;30.466;2023-10-13T04:30:48;21.15;;;10.13;;
35312;SDS011;21425;50.454;30.466;2023-10-13T04:33:22;19.90;;;11.02;;
35312;SDS011;21425;50.454;30.466;2023-10-13T04:36:03;17.27;;;11.68;;
35312;SDS011;21425;50.454;30.466;2023-10-13T04:38:51;19.52;;;11.02;;
35312;SDS011;21425;50.454;30.466;2023-10-13T04:41:28;19.30;;;10.73;;
35312;SDS011;21425;50.454;30.466;2023-10-13T04:44:07;19.85;;;10.85;;
35312;SDS011;21425;50.454;30.466;2023-10-13T04:46:54;18.38;;;12.65;;
35312;SDS011;21425;50.454;30.466;2023-10-13T04:49:23;21.30;;;12.60;;
35312;SDS011;21425;50.454;30.466;2023-10-13T04:52:10;24.13;;;12.70;;
35312;SDS011;21425;50.454;30.466;2023-10-13T04:54:39;25.30;;;15.15;;
35312;SDS011;21425;50.454;30.466;2023-10-13T04:57:18;22.45;;;13.48;;
35312;SDS011;21425;50.454;30.466;2023-10-13T04:59:49;22.08;;;13.75;;
35312;SDS011;21425;50.454;30.466;2023-10-13T05:02:34;26.02;;;13.35;;
35312;SDS011;21425;50.454;30.466;2023-10-13T05:05:01;27.88;;;14.57;;
35312;SDS011;21425;50.454;30.466;2023-10-13T05:07:46;19.67;;;12.40;;
35312;SDS011;21425;50.454;30.466;2023-10-13T05:10:31;20.58;;;12.85;;
35312;SDS011;21425;50.454;30.466;2023-10-13T05:13:29;26.17;;;13.90;;
35312;SDS011;21425;50.454;30.466;2023-10-13T05:16:14;24.98;;;13.90;;
35312;SDS011;21425;50.454;30.466;2023-10-13T05:18:59;26.83;;;14.52;;
35312;SDS011;21425;50.454;30.466;2023-10-13T05:21:43;23.05;;;13.27;;
35312;SDS011;21425;50.454;30.466;2023-10-13T05:24:28;23.50;;;13.25;;
35312;SDS011;21425;50.454;30.466;2023-10-13T05:27:13;24.30;;;12.93;;
35312;SDS011;21425;50.454;30.466;2023-10-13T05:29:57;19.58;;;10.90;;
35312;SDS011;21425;50.454;30.466;2023-10-13T05:32:41;18.33;;;12.27;;
35312;SDS011;21425;50.454;30.466;2023-10-13T05:35:26;22.42;;;12.40;;
35312;SDS011;21425;50.454;30.466;2023-10-13T05:41:01;20.80;;;10.75;;
35312;SDS011;21425;50.454;30.466;2023-10-13T05:43:46;15.30;;;9.77;;
35312;SDS011;21425;50.454;30.466;2023-10-13T05:46:31;18.13;;;10.05;;
35312;SDS011;21425;50.454;30.466;2023-10-13T05:49:04;20.73;;;11.90;;
35312;SDS011;21425;50.454;30.466;2023-10-13T05:51:37;16.27;;;9.98;;
35312;SDS011;21425;50.454;30.466;2023-10-13T05:54:03;21.13;;;10.93;;
35312;SDS011;21425;50.454;30.466;2023-10-13T05:56:38;16.65;;;9.55;;
35312;SDS011;21425;50.454;30.466;2023-10-13T05:59:23;19.15;;;9.43;;
35312;SDS011;21425;50.454;30.466;2023-10-13T06:02:07;15.07;;;10.52;;
35312;SDS011;21425;50.454;30.466;2023-10-13T06:04:51;14.27;;;8.50;;
35312;SDS011;21425;50.454;30.466;2023-10-13T06:07:36;18.40;;;8.85;;
35312;SDS011;21425;50.454;30.466;2023-10-13T06:10:20;16.90;;;8.38;;
35312;SDS011;21425;50.454;30.466;2023-10-13T06:13:05;11.93;;;7.60;;
35312;SDS011;21425;50.454;30.466;2023-10-13T06:15:49;16.38;;;7.88;;
35312;SDS011;21425;50.454;30.466;2023-10-13T06:18:34;11.90;;;6.93;;
35312;SDS011;21425;50.454;30.466;2023-10-13T06:21:22;13.88;;;6.72;;
35312;SDS011;21425;50.454;30.466;2023-10-13T06:24:06;12.82;;;7.32;;
35312;SDS011;21425;50.454;30.466;2023-10-13T06:26:51;16.38;;;7.18;;
35312;SDS011;21425;50.454;30.466;2023-10-13T06:32:00;12.73;;;7.28;;
35312;SDS011;21425;50.454;30.466;2023-10-13T06:34:29;13.43;;;7.90;;
35312;SDS011;21425;50.454;30.466;2023-10-13T06:37:16;15.93;;;7.30;;
35312;SDS011;21425;50.454;30.466;2023-10-13T06:39:53;15.75;;;7.18;;
35312;SDS011;21425;50.454;30.466;2023-10-13T06:42:24;12.50;;;6.72;;
35312;SDS011;21425;50.454;30.466;2023-10-13T06:44:55;12.27;;;7.25;;
35312;SDS011;21425;50.454;30.466;2023-10-13T06:47:21;11.43;;;7.13;;
35312;SDS011;21425;50.454;30.466;2023-10-13T06:49:47;13.00;;;6.82;;
35312;SDS011;21425;50.454;30.466;2023-10-13T06:52:19;13.15;;;6.00;;
35312;SDS011;21425;50.454;30.466;2023-10-13T06:54:49;15.30;;;5.95;;
35312;SDS011;21425;50.454;30.466;2023-10-13T06:57:15;12.13;;;6.63;;
35312;SDS011;21425;50.454;30.466;2023-10-13T06:59:48;11.73;;;5.82;;
35312;SDS011;21425;50.454;30.466;2023-10-13T07:02:14;11.88;;;5.68;;
35312;SDS011;21425;50.454;30.466;2023-10-13T07:04:50;10.20;;;6.00;;
35312;SDS011;21425;50.454;30.466;2023-10-13T07:07:32;7.70;;;5.13;;
35312;SDS011;21425;50.454;30.466;2023-10-13T07:09:58;7.80;;;4.68;;
35312;SDS011;21425;50.454;30.466;2023-10-13T07:12:24;10.43;;;5.00;;
35312;SDS011;21425;50.454;30.466;2023-10-13T07:14:58;11.60;;;5.38;;
35312;SDS011;21425;50.454;30.466;2023-10-13T07:17:41;10.43;;;5.60;;
35312;SDS011;21425;50.454;30.466;2023-10-13T07:20:09;10.23;;;5.13;;
35312;SDS011;21425;50.454;30.466;2023-10-13T07:22:59;8.70;;;5.30;;
35312;SDS011;21425;50.454;30.466;2023-10-13T07:25:29;10.73;;;5.40;;
35312;SDS011;21425;50.454;30.466;2023-10-13T07:28:00;9.55;;;5.28;;
35312;SDS011;21425;50.454;30.466;2023-10-13T07:30:28;9.52;;;4.85;;
35312;SDS011;21425;50.454;30.466;2023-10-13T07:32:56;10.15;;;4.95;;
35312;SDS011;21425;50.454;30.466;2023-10-13T07:35:24;9.18;;;5.00;;
35312;SDS011;21425;50.454;30.466;2023-10-13T07:37:51;10.02;;;4.25;;
35312;SDS011;21425;50.454;30.466;2023-10-13T07:40:19;11.73;;;4.32;;
35312;SDS011;21425;50.454;30.466;2023-10-13T07:42:51;10.88;;;4.85;;
35312;SDS011;21425;50.454;30.466;2023-10-13T07:45:17;8.80;;;4.65;;
35312;SDS011;21425;50.454;30.466;2023-10-13T07:48:01;16.65;;;5.90;;
35312;SDS011;21425;50.454;30.466;2023-10-13T07:50:33;13.63;;;5.53;;
35312;SDS011;21425;50.454;30.466;2023-10-13T07:52:59;12.73;;;5.47;;
35312;SDS011;21425;50.454;30.466;2023-10-13T07:55:31;13.20;;;6.25;;
35312;SDS011;21425;50.454;30.466;2023-10-13T07:57:59;10.73;;;5.97;;
35312;SDS011;21425;50.454;30.466;2023-10-13T08:00:25;16.58;;;7.20;;
35312;SDS011;21425;50.454;30.466;2023-10-13T08:03:04;13.05;;;5.85;;
35312;SDS011;21425;50.454;30.466;2023-10-13T08:05:45;10.75;;;6.20;;
35312;SDS011;21425;50.454;30.466;2023-10-13T08:08:29;11.43;;;7.03;;
35312;SDS011;21425;50.454;30.466;2023-10-13T08:11:09;9.77;;;6.53;;
35312;SDS011;21425;50.454;30.466;2023-10-13T08:13:47;13.05;;;6.50;;
35312;SDS011;21425;50.454;30.466;2023-10-13T08:16:19;18.10;;;7.30;;
35312;SDS011;21425;50.454;30.466;2023-10-13T08:18:51;16.40;;;6.35;;
35312;SDS011;21425;50.454;30.466;2023-10-13T08:21:17;10.23;;;5.68;;
35312;SDS011;21425;50.454;30.466;2023-10-13T08:23:57;11.43;;;5.85;;
35312;SDS011;21425;50.454;30.466;2023-10-13T08:26:25;11.02;;;5.03;;
35312;SDS011;21425;50.454;30.466;2023-10-13T08:29:00;14.20;;;5.38;;
35312;SDS011;21425;50.454;30.466;2023-10-13T08:31:46;11.80;;;4.75;;
35312;SDS011;21425;50.454;30.466;2023-10-13T08:34:35;7.97;;;4.93;;
35312;SDS011;21425;50.454;30.466;2023-10-13T08:37:25;9.55;;;5.05;;
35312;SDS011;21425;50.454;30.466;2023-10-13T08:39:52;10.13;;;4.95;;
35312;SDS011;21425;50.454;30.466;2023-10-13T08:45:09;6.63;;;4.50;;
35312;SDS011;21425;50.454;30.466;2023-10-13T08:47:52;9.27;;;4.55;;
35312;SDS011;21425;50.454;30.466;2023-10-13T08:50:33;9.10;;;3.78;;
35312;SDS011;21425;50.454;30.466;2023-10-13T08:55:54;5.53;;;2.83;;
35312;SDS011;21425;50.454;30.466;2023-10-13T08:58:35;7.50;;;3.00;;
35312;SDS011;21425;50.454;30.466;2023-10-13T09:04:01;7.65;;;3.60;;
35312;SDS011;21425;50.454;30.466;2023-10-13T09:06:46;7.40;;;3.47;;
35312;SDS011;21425;50.454;30.466;2023-10-13T09:09:24;5.97;;;2.80;;
35312;SDS011;21425;50.454;30.466;2023-10-13T09:12:10;7.18;;;3.38;;
35312;SDS011;21425;50.454;30.466;2023-10-13T09:14:36;6.47;;;2.75;;
35312;SDS011;21425;50.454;30.466;2023-10-13T09:17:22;6.30;;;3.58;;
35312;SDS011;21425;50.454;30.466;2023-10-13T09:20:05;6.78;;;3.13;;
35312;SDS011;21425;50.454;30.466;2023-10-13T09:22:47;8.32;;;3.78;;
35312;SDS011;21425;50.454;30.466;2023-10-13T09:25:33;8.52;;;3.20;;
35312;SDS011;21425;50.454;30.466;2023-10-13T09:28:12;9.20;;;3.20;;
35312;SDS011;21425;50.454;30.466;2023-10-13T09:30:47;6.03;;;2.88;;
35312;SDS011;21425;50.454;30.466;2023-10-13T09:33:13;8.82;;;3.30;;
35312;SDS011;21425;50.454;30.466;2023-10-13T09:38:24;7.30;;;2.97;;
35312;SDS011;21425;50.454;30.466;2023-10-13T09:40:50;6.68;;;2.95;;
35312;SDS011;21425;50.454;30.466;2023-10-13T09:43:37;5.00;;;2.45;;
35312;SDS011;21425;50.454;30.466;2023-10-13T09:46:03;4.93;;;2.50;;
35312;SDS011;21425;50.454;30.466;2023-10-13T09:48:42;11.38;;;2.40;;
35312;SDS011;21425;50.454;30.466;2023-10-13T09:51:15;8.15;;;2.90;;
35312;SDS011;21425;50.454;30.466;2023-10-13T09:53:58;9.43;;;2.30;;
35312;SDS011;21425;50.454;30.466;2023-10-13T09:56:27;7.30;;;2.67;;
35312;SDS011;21425;50.454;30.466;2023-10-13T09:58:58;4.93;;;2.40;;
35312;SDS011;21425;50.454;30.466;2023-10-13T10:01:33;7.80;;;2.72;;
35312;SDS011;21425;50.454;30.466;2023-10-13T10:04:21;5.00;;;2.58;;
35312;SDS011;21425;50.454;30.466;2023-10-13T10:06:54;5.78;;;2.50;;
35312;SDS011;21425;50.454;30.466;2023-10-13T10:09:28;5.57;;;2.13;;
35312;SDS011;21425;50.454;30.466;2023-10-13T10:12:21;9.45;;;2.45;;
35312;SDS011;21425;50.454;30.466;2023-10-13T10:17:46;10.77;;;2.85;;
35312;SDS011;21425;50.454;30.466;2023-10-13T10:20:14;5.18;;;2.50;;
35312;SDS011;21425;50.454;30.466;2023-10-13T10:22:54;4.95;;;2.40;;
35312;SDS011;21425;50.454;30.466;2023-10-13T10:25:28;6.60;;;2.60;;
35312;SDS011;21425;50.454;30.466;2023-10-13T10:28:00;5.75;;;1.80;;
35312;SDS011;21425;50.454;30.466;2023-10-13T10:30:26;7.13;;;2.88;;
35312;SDS011;21425;50.454;30.466;2023-10-13T10:32:59;3.72;;;1.88;;
35312;SDS011;21425;50.454;30.466;2023-10-13T10:35:25;5.28;;;1.95;;
35312;SDS011;21425;50.454;30.466;2023-10-13T10:37:55;4.75;;;1.65;;
35312;SDS011;21425;50.454;30.466;2023-10-13T10:40:36;4.88;;;1.92;;
35312;SDS011;21425;50.454;30.466;2023-10-13T10:43:13;10.25;;;2.17;;
35312;SDS011;21425;50.454;30.466;2023-10-13T10:45:45;6.05;;;1.98;;
35312;SDS011;21425;50.454;30.466;2023-10-13T10:48:12;4.50;;;2.20;;
35312;SDS011;21425;50.454;30.466;2023-10-13T10:50:45;5.03;;;2.08;;
35312;SDS011;21425;50.454;30.466;2023-10-13T10:53:19;7.35;;;2.33;;
35312;SDS011;21425;50.454;30.466;2023-10-13T10:55:46;8.65;;;1.98;;
35312;SDS011;21425;50.454;30.466;2023-10-13T10:58:12;4.97;;;2.38;;
35312;SDS011;21425;50.454;30.466;2023-10-13T11:01:06;5.70;;;2.10;;
35312;SDS011;21425;50.454;30.466;2023-10-13T11:03:39;5.43;;;2.00;;
35312;SDS011;21425;50.454;30.466;2023-10-13T11:06:07;5.78;;;1.77;;
35312;SDS011;21425;50.454;30.466;2023-10-13T11:08:42;6.32;;;2.35;;
35312;SDS011;21425;50.454;30.466;2023-10-13T11:11:15;5.32;;;2.28;;
35312;SDS011;21425;50.454;30.466;2023-10-13T11:13:45;4.63;;;2.53;;
35312;SDS011;21425;50.454;30.466;2023-10-13T11:16:20;5.47;;;1.65;;
35312;SDS011;21425;50.454;30.466;2023-10-13T11:18:59;4.65;;;2.22;;
35312;SDS011;21425;50.454;30.466;2023-10-13T11:21:30;4.53;;;1.85;;
35312;SDS011;21425;50.454;30.466;2023-10-13T11:23:59;6.45;;;3.00;;
35312;SDS011;21425;50.454;30.466;2023-10-13T11:26:37;6.53;;;2.25;;
35312;SDS011;21425;50.454;30.466;2023-10-13T11:29:14;8.63;;;2.60;;
35312;SDS011;21425;50.454;30.466;2023-10-13T11:31:44;9.13;;;2.38;;
35312;SDS011;21425;50.454;30.466;2023-10-13T11:34:10;4.13;;;2.20;;
35312;SDS011;21425;50.454;30.466;2023-10-13T11:36:41;7.90;;;2.30;;
35312;SDS011;21425;50.454;30.466;2023-10-13T11:39:07;6.57;;;2.20;;
35312;SDS011;21425;50.454;30.466;2023-10-13T11:41:33;7.57;;;2.45;;
35312;SDS011;21425;50.454;30.466;2023-10-13T11:44:00;9.75;;;2.70;;
35312;SDS011;21425;50.454;30.466;2023-10-13T11:46:48;5.13;;;2.25;;
35312;SDS011;21425;50.454;30.466;2023-10-13T11:49:21;4.68;;;2.33;;
35312;SDS011;21425;50.454;30.466;2023-10-13T11:51:53;6.88;;;2.58;;
35312;SDS011;21425;50.454;30.466;2023-10-13T11:54:27;5.55;;;2.50;;
35312;SDS011;21425;50.454;30.466;2023-10-13T11:56:53;4.32;;;2.00;;
35312;SDS011;21425;50.454;30.466;2023-10-13T11:59:23;6.35;;;2.15;;
35312;SDS011;21425;50.454;30.466;2023-10-13T12:01:53;4.07;;;2.05;;
35312;SDS011;21425;50.454;30.466;2023-10-13T12:04:38;4.15;;;2.30;;
35312;SDS011;21425;50.454;30.466;2023-10-13T12:07:07;6.07;;;1.98;;
35312;SDS011;21425;50.454;30.466;2023-10-13T12:09:43;8.80;;;1.98;;
35312;SDS011;21425;50.454;30.466;2023-10-13T12:12:28;4.30;;;2.10;;
35312;SDS011;21425;50.454;30.466;2023-10-13T12:15:05;4.97;;;1.92;;
35312;SDS011;21425;50.454;30.466;2023-10-13T12:17:35;3.35;;;1.92;;
35312;SDS011;21425;50.454;30.466;2023-10-13T12:20:05;4.38;;;1.70;;
35312;SDS011;21425;50.454;30.466;2023-10-13T12:22:35;4.70;;;1.90;;
35312;SDS011;21425;50.454;30.466;2023-10-13T12:25:03;5.78;;;2.50;;
35312;SDS011;21425;50.454;30.466;2023-10-13T12:27:30;5.28;;;2.17;;
35312;SDS011;21425;50.454;30.466;2023-10-13T12:30:00;4.15;;;2.15;;
35312;SDS011;21425;50.454;30.466;2023-10-13T12:32:33;5.07;;;2.25;;
35312;SDS011;21425;50.454;30.466;2023-10-13T12:34:59;5.32;;;2.25;;
35312;SDS011;21425;50.454;30.466;2023-10-13T12:37:31;3.97;;;1.80;;
35312;SDS011;21425;50.454;30.466;2023-10-13T12:40:15;5.80;;;2.58;;
35312;SDS011;21425;50.454;30.466;2023-10-13T12:43:01;3.58;;;1.92;;
35312;SDS011;21425;50.454;30.466;2023-10-13T12:45:46;4.75;;;2.05;;
35312;SDS011;21425;50.454;30.466;2023-10-13T12:48:32;7.85;;;2.42;;
35312;SDS011;21425;50.454;30.466;2023-10-13T12:51:17;4.43;;;1.63;;
35312;SDS011;21425;50.454;30.466;2023-10-13T12:53:49;3.83;;;1.95;;
35312;SDS011;21425;50.454;30.466;2023-10-13T12:56:16;5.47;;;2.58;;
35312;SDS011;21425;50.454;30.466;2023-10-13T12:58:42;7.25;;;2.25;;
35312;SDS011;21425;50.454;30.466;2023-10-13T13:01:18;5.75;;;2.33;;
35312;SDS011;21425;50.454;30.466;2023-10-13T13:03:51;5.90;;;2.40;;
35312;SDS011;21425;50.454;30.466;2023-10-13T13:06:22;4.35;;;2.03;;
35312;SDS011;21425;50.454;30.466;2023-10-13T13:08:53;3.95;;;1.90;;
35312;SDS011;21425;50.454;30.466;2023-10-13T13:11:19;3.63;;;2.13;;
35312;SDS011;21425;50.454;30.466;2023-10-13T13:13:46;4.65;;;2.10;;
35312;SDS011;21425;50.454;30.466;2023-10-13T13:16:12;5.03;;;2.10;;
35312;SDS011;21425;50.454;30.466;2023-10-13T13:18:38;5.43;;;2.13;;
35312;SDS011;21425;50.454;30.466;2023-10-13T13:21:04;3.30;;;1.77;;
35312;SDS011;21425;50.454;30.466;2023-10-13T13:23:37;3.85;;;1.80;;
35312;SDS011;21425;50.454;30.466;2023-10-13T13:26:04;4.13;;;2.05;;
35312;SDS011;21425;50.454;30.466;2023-10-13T13:28:40;2.25;;;1.65;;
35312;SDS011;21425;50.454;30.466;2023-10-13T13:31:06;4.40;;;1.80;;
35312;SDS011;21425;50.454;30.466;2023-10-13T13:33:33;4.78;;;2.40;;
35312;SDS011;21425;50.454;30.466;2023-10-13T13:36:04;4.43;;;1.55;;
35312;SDS011;21425;50.454;30.466;2023-10-13T13:38:30;2.80;;;1.88;;
35312;SDS011;21425;50.454;30.466;2023-10-13T13:40:57;5.43;;;2.05;;
35312;SDS011;21425;50.454;30.466;2023-10-13T13:43:23;7.18;;;2.13;;
35312;SDS011;21425;50.454;30.466;2023-10-13T13:46:08;5.07;;;2.22;;
35312;SDS011;21425;50.454;30.466;2023-10-13T13:48:35;6.88;;;2.28;;
35312;SDS011;21425;50.454;30.466;2023-10-13T13:51:05;5.55;;;1.70;;
35312;SDS011;21425;50.454;30.466;2023-10-13T13:53:37;3.58;;;1.83;;
35312;SDS011;21425;50.454;30.466;2023-10-13T13:56:07;3.80;;;1.65;;
35312;SDS011;21425;50.454;30.466;2023-10-13T13:58:34;4.30;;;1.63;;
35312;SDS011;21425;50.454;30.466;2023-10-13T14:01:02;2.95;;;1.70;;
35312;SDS011;21425;50.454;30.466;2023-10-13T14:03:37;2.90;;;1.63;;
35312;SDS011;21425;50.454;30.466;2023-10-13T14:06:09;3.40;;;1.83;;
35312;SDS011;21425;50.454;30.466;2023-10-13T14:08:42;6.35;;;2.38;;
35312;SDS011;21425;50.454;30.466;2023-10-13T14:11:09;3.03;;;1.63;;
35312;SDS011;21425;50.454;30.466;2023-10-13T14:13:39;4.85;;;1.52;;
35312;SDS011;21425;50.454;30.466;2023-10-13T14:16:17;5.28;;;1.95;;
35312;SDS011;21425;50.454;30.466;2023-10-13T14:18:47;4.20;;;2.20;;
35312;SDS011;21425;50.454;30.466;2023-10-13T14:21:17;7.07;;;2.20;;
35312;SDS011;21425;50.454;30.466;2023-10-13T14:23:47;4.38;;;1.85;;
35312;SDS011;21425;50.454;30.466;2023-10-13T14:26:18;4.13;;;1.90;;
35312;SDS011;21425;50.454;30.466;2023-10-13T14:28:50;4.93;;;2.05;;
35312;SDS011;21425;50.454;30.466;2023-10-13T14:31:29;5.65;;;1.95;;
35312;SDS011;21425;50.454;30.466;2023-10-13T14:33:55;6.68;;;1.80;;
35312;SDS011;21425;50.454;30.466;2023-10-13T14:36:25;7.75;;;2.28;;
35312;SDS011;21425;50.454;30.466;2023-10-13T14:38:54;6.63;;;2.33;;
35312;SDS011;21425;50.454;30.466;2023-10-13T14:41:20;8.52;;;1.98;;
35312;SDS011;21425;50.454;30.466;2023-10-13T14:43:46;6.03;;;2.30;;
35312;SDS011;21425;50.454;30.466;2023-10-13T14:46:19;6.15;;;2.20;;
35312;SDS011;21425;50.454;30.466;2023-10-13T14:48:51;6.85;;;2.15;;
35312;SDS011;21425;50.454;30.466;2023-10-13T14:51:17;3.60;;;1.90;;
35312;SDS011;21425;50.454;30.466;2023-10-13T14:53:43;5.15;;;2.10;;
35312;SDS011;21425;50.454;30.466;2023-10-13T14:56:13;4.85;;;2.15;;
35312;SDS011;21425;50.454;30.466;2023-10-13T14:58:39;4.45;;;1.98;;
35312;SDS011;21425;50.454;30.466;2023-10-13T15:01:12;6.13;;;2.40;;
35312;SDS011;21425;50.454;30.466;2023-10-13T15:03:40;4.85;;;2.03;;
35312;SDS011;21425;50.454;30.466;2023-10-13T15:06:19;4.97;;;2.10;;
35312;SDS011;21425;50.454;30.466;2023-10-13T15:08:55;4.68;;;2.30;;
35312;SDS011;21425;50.454;30.466;2023-10-13T15:11:23;5.30;;;2.20;;
35312;SDS011;21425;50.454;30.466;2023-10-13T15:13:55;3.40;;;1.90;;
35312;SDS011;21425;50.454;30.466;2023-10-13T15:16:23;5.22;;;2.30;;
35312;SDS011;21425;50.454;30.466;2023-10-13T15:18:50;6.70;;;2.45;;
35312;SDS011;21425;50.454;30.466;2023-10-13T15:21:20;6.72;;;2.40;;
35312;SDS011;21425;50.454;30.466;2023-10-13T15:24:02;4.25;;;2.35;;